TimeCDT,TemperatureF,Dew PointF,Humidity,Sea Level PressureIn,VisibilityMPH,Wind Direction,Wind SpeedMPH,Gust SpeedMPH,PrecipitationIn,Events,Conditions,WindDirDegrees,DateUTC
12:53 AM,80.1,69.1,69,29.96,10.0,South,5.8,-,N/A,,Clear,190,2013-06-14 05:53:00
1:53 AM,78.1,69.1,74,29.95,10.0,South,4.6,-,N/A,,Clear,190,2013-06-14 06:53:00
2:53 AM,75.0,69.1,82,29.94,10.0,SSW,4.6,-,N/A,,Clear,210,2013-06-14 07:53:00
3:53 AM,75.0,68.0,79,29.94,10.0,SW,5.8,-,N/A,,Clear,230,2013-06-14 08:53:00
4:53 AM,73.0,68.0,84,29.95,10.0,SW,6.9,-,N/A,,Clear,220,2013-06-14 09:53:00
5:53 AM,72.0,68.0,87,29.96,10.0,SSW,4.6,-,N/A,,Clear,210,2013-06-14 10:53:00
6:53 AM,73.0,68.0,84,29.97,9.0,SSW,4.6,-,N/A,,Clear,210,2013-06-14 11:53:00
7:53 AM,78.1,69.1,74,29.98,10.0,SSW,3.5,-,N/A,,Clear,210,2013-06-14 12:53:00
8:53 AM,82.9,69.1,63,29.99,10.0,SW,4.6,-,N/A,,Clear,220,2013-06-14 13:53:00
9:53 AM,87.1,69.1,55,29.99,10.0,WSW,4.6,-,N/A,,Clear,250,2013-06-14 14:53:00
10:53 AM,91.0,69.1,48,29.98,10.0,Calm,Calm,-,N/A,,Clear,0,2013-06-14 15:53:00
11:53 AM,91.9,69.1,47,29.98,9.0,South,5.8,-,N/A,,Clear,190,2013-06-14 16:53:00
12:53 PM,93.9,69.1,44,29.96,10.0,Variable,3.5,-,N/A,,Clear,0,2013-06-14 17:53:00
1:53 PM,95.0,66.9,40,29.94,9.0,South,6.9,-,N/A,,Clear,180,2013-06-14 18:53:00
2:53 PM,96.1,68.0,40,29.93,10.0,Calm,Calm,-,N/A,,Scattered Clouds,0,2013-06-14 19:53:00
3:53 PM,96.1,69.1,41,29.91,10.0,NE,6.9,-,N/A,,Mostly Cloudy,50,2013-06-14 20:53:00
4:53 PM,96.1,68.0,40,29.90,10.0,ESE,10.4,-,N/A,,Mostly Cloudy,120,2013-06-14 21:53:00
5:53 PM,95.0,68.0,41,29.88,10.0,ESE,8.1,-,N/A,,Clear,120,2013-06-14 22:53:00
6:53 PM,93.0,66.0,41,29.88,10.0,ESE,6.9,-,N/A,,Clear,110,2013-06-14 23:53:00
7:53 PM,90.0,69.1,50,29.89,10.0,ESE,6.9,-,N/A,,Clear,120,2013-06-15 00:53:00
8:53 PM,88.0,70.0,55,29.90,10.0,SE,4.6,-,N/A,,Clear,130,2013-06-15 01:53:00
9:53 PM,84.9,71.1,63,29.91,10.0,SE,4.6,-,N/A,,Clear,130,2013-06-15 02:53:00
10:53 PM,84.0,71.1,65,29.93,9.0,SSE,3.5,-,N/A,,Clear,160,2013-06-15 03:53:00
11:53 PM,82.0,72.0,71,29.94,10.0,Calm,Calm,-,N/A,,Clear,0,2013-06-15 04:53:00